createdAt,value
2017-10-28T00:00:41.878Z,85.98
2017-10-28T00:03:10.323Z,85.89
2017-10-28T00:05:39.563Z,86.32
2017-10-28T00:08:08.061Z,86.28
2017-10-28T00:10:36.522Z,85.98
2017-10-28T00:13:05.020Z,85.75
2017-10-28T00:15:33.482Z,85.93
2017-10-28T00:18:01.979Z,85.86
2017-10-28T00:20:30.468Z,85.54
2017-10-28T00:22:58.908Z,85.54
2017-10-28T00:25:27.366Z,85.17
2017-10-28T00:27:55.908Z,84.85
2017-10-28T00:30:29.994Z,85.11
2017-10-28T00:33:04.687Z,84.86
2017-10-28T00:35:38.730Z,84.99
2017-10-28T00:38:07.954Z,84.75
2017-10-28T00:40:36.394Z,84.76
2017-10-28T00:43:05.635Z,84.60
2017-10-28T00:45:34.127Z,84.44
2017-10-28T00:48:02.612Z,85.00
2017-10-28T00:50:31.053Z,85.13
2017-10-28T00:53:00.396Z,85.29
2017-10-28T00:55:28.877Z,85.56
2017-10-28T00:57:57.340Z,85.24
2017-10-28T01:00:25.778Z,85.81
2017-10-28T01:02:54.354Z,87.09
2017-10-28T01:05:22.903Z,87.83
2017-10-28T01:07:51.387Z,89.51
2017-10-28T01:10:19.825Z,90.32
2017-10-28T01:12:49.035Z,90.58
2017-10-28T01:15:18.258Z,90.93
2017-10-28T01:17:46.690Z,90.64
2017-10-28T01:20:15.150Z,88.75
2017-10-28T01:22:43.618Z,88.66
2017-10-28T01:25:12.098Z,87.51
2017-10-28T01:27:40.575Z,87.36
2017-10-28T01:30:09.164Z,86.43
2017-10-28T01:32:37.600Z,86.49
2017-10-28T01:35:06.825Z,86.68
2017-10-28T01:37:35.272Z,86.74
2017-10-28T01:40:03.734Z,86.79
2017-10-28T01:42:32.170Z,86.64
2017-10-28T01:45:00.661Z,87.32
2017-10-28T01:47:29.141Z,87.20
2017-10-28T01:49:57.625Z,87.21
2017-10-28T01:52:26.081Z,87.46
2017-10-28T01:54:55.276Z,87.17
2017-10-28T01:57:24.511Z,86.81
2017-10-28T01:59:52.945Z,86.82
2017-10-28T02:02:21.412Z,86.95
2017-10-28T02:04:49.859Z,86.77
2017-10-28T02:07:18.318Z,86.78
2017-10-28T02:09:46.748Z,86.56
2017-10-28T02:12:15.205Z,86.67
2017-10-28T02:14:43.632Z,86.17
2017-10-28T02:17:12.085Z,86.53
2017-10-28T02:19:40.521Z,86.30
2017-10-28T02:22:09.031Z,86.31
2017-10-28T02:24:37.476Z,86.34
2017-10-28T02:27:06.717Z,86.43
2017-10-28T02:29:35.194Z,86.41
2017-10-28T02:32:03.675Z,86.48
2017-10-28T02:34:32.141Z,86.73
2017-10-28T02:37:00.583Z,86.83
2017-10-28T02:39:29.818Z,86.81
2017-10-28T02:41:58.314Z,86.80
2017-10-28T02:44:26.777Z,86.94
2017-10-28T02:46:55.209Z,86.97
2017-10-28T02:49:23.757Z,86.95
2017-10-28T02:51:52.239Z,87.14
2017-10-28T02:54:20.693Z,87.39
2017-10-28T02:56:49.885Z,88.47
2017-10-28T02:59:19.117Z,89.24
2017-10-28T03:01:47.559Z,89.45
2017-10-28T03:04:16.784Z,89.97
2017-10-28T03:06:45.324Z,89.76
2017-10-28T03:09:13.879Z,89.58
2017-10-28T03:11:42.360Z,89.39
2017-10-28T03:14:10.796Z,88.96
2017-10-28T03:16:40.039Z,88.59
2017-10-28T03:19:08.526Z,88.69
2017-10-28T03:21:36.989Z,88.39
2017-10-28T03:24:05.492Z,88.13
2017-10-28T03:26:33.967Z,87.96
2017-10-28T03:29:02.396Z,87.82
2017-10-28T03:31:30.863Z,87.90
2017-10-28T03:33:59.293Z,88.15
2017-10-28T03:36:27.753Z,88.67
2017-10-28T03:38:56.990Z,89.01
2017-10-28T03:41:25.454Z,89.31
2017-10-28T03:43:53.889Z,89.50
2017-10-28T03:46:22.341Z,89.73
2017-10-28T03:48:50.813Z,89.83
2017-10-28T03:51:19.299Z,89.60
2017-10-28T03:53:47.745Z,89.79
2017-10-28T03:56:16.970Z,89.58
2017-10-28T03:58:45.405Z,89.86
2017-10-28T04:01:13.848Z,90.86
2017-10-28T04:03:42.317Z,91.83
2017-10-28T04:06:10.815Z,92.49
2017-10-28T04:08:39.281Z,93.36
2017-10-28T04:11:07.776Z,93.25
2017-10-28T04:13:36.237Z,93.35
2017-10-28T04:16:04.675Z,93.18
2017-10-28T04:18:33.138Z,92.89
2017-10-28T04:21:01.565Z,92.75
2017-10-28T04:23:30.787Z,92.30
2017-10-28T04:25:59.221Z,91.54
2017-10-28T04:28:27.689Z,91.43
2017-10-28T04:30:56.121Z,91.11
2017-10-28T04:33:24.606Z,90.96
2017-10-28T04:35:53.037Z,90.85
2017-10-28T04:38:21.478Z,90.24
2017-10-28T04:40:49.948Z,90.42
2017-10-28T04:43:18.390Z,90.11
2017-10-28T04:45:46.853Z,90.38
2017-10-28T04:48:15.290Z,90.49
2017-10-28T04:50:43.790Z,90.91
2017-10-28T04:53:12.231Z,91.26
2017-10-28T04:55:41.457Z,91.73
2017-10-28T04:58:09.893Z,91.73
2017-10-28T05:00:38.349Z,91.42
2017-10-28T05:03:06.812Z,92.05
2017-10-28T05:05:35.270Z,92.04
2017-10-28T05:08:04.496Z,92.71
2017-10-28T05:10:32.954Z,92.00
2017-10-28T05:13:02.160Z,92.08
2017-10-28T05:15:30.660Z,91.11
2017-10-28T05:17:59.117Z,90.58
2017-10-28T05:20:28.320Z,90.78
2017-10-28T05:22:57.645Z,90.27
2017-10-28T05:25:26.140Z,90.42
2017-10-28T05:27:54.822Z,90.28
2017-10-28T05:30:23.261Z,90.26
2017-10-28T05:32:52.486Z,89.84
2017-10-28T05:35:20.921Z,90.46
2017-10-28T05:37:49.386Z,90.44
2017-10-28T05:40:17.847Z,90.53
2017-10-28T05:42:46.313Z,90.56
2017-10-28T05:45:14.752Z,91.73
2017-10-28T05:47:43.205Z,92.74
2017-10-28T05:50:11.643Z,93.41
2017-10-28T05:52:40.145Z,94.31
2017-10-28T05:55:08.586Z,94.86
2017-10-28T05:57:37.829Z,95.21
2017-10-28T06:00:06.294Z,95.66
2017-10-28T06:02:34.721Z,95.17
2017-10-28T06:05:03.181Z,95.15
2017-10-28T06:07:31.654Z,94.81
2017-10-28T06:10:00.109Z,94.41
2017-10-28T06:12:29.305Z,93.66
2017-10-28T06:14:58.531Z,93.47
2017-10-28T06:17:26.988Z,93.06
2017-10-28T06:19:56.209Z,92.90
2017-10-28T06:22:24.702Z,92.27
2017-10-28T06:24:53.163Z,92.31
2017-10-28T06:27:21.602Z,92.01
2017-10-28T06:29:50.069Z,92.28
2017-10-28T06:32:18.527Z,92.15
2017-10-28T06:34:47.118Z,91.97
2017-10-28T06:37:15.553Z,91.97
2017-10-28T06:39:44.750Z,91.92
2017-10-28T06:42:13.969Z,91.86
2017-10-28T06:44:42.405Z,91.75
2017-10-28T06:47:10.861Z,91.52
2017-10-28T06:49:39.332Z,91.88
2017-10-28T06:52:07.822Z,90.96
2017-10-28T06:54:36.253Z,90.85
2017-10-28T06:57:06.221Z,90.88
2017-10-28T06:59:34.689Z,90.34
2017-10-28T07:02:03.146Z,90.41
2017-10-28T07:04:32.353Z,90.71
2017-10-28T07:07:01.579Z,90.02
2017-10-28T07:09:30.065Z,89.69
2017-10-28T07:11:58.525Z,89.80
2017-10-28T07:14:26.965Z,89.91
2017-10-28T07:16:55.514Z,88.95
2017-10-28T07:19:23.944Z,88.99
2017-10-28T07:21:53.192Z,88.55
2017-10-28T07:24:21.639Z,88.35
2017-10-28T07:26:50.846Z,88.36
2017-10-28T07:29:19.292Z,88.73
2017-10-28T07:31:47.731Z,88.07
2017-10-28T07:34:16.190Z,88.14
2017-10-28T07:36:45.385Z,88.02
2017-10-28T07:39:14.607Z,87.60
2017-10-28T07:41:43.093Z,87.65
2017-10-28T07:44:11.668Z,87.31
2017-10-28T07:46:40.164Z,86.88
2017-10-28T07:49:08.629Z,86.35
2017-10-28T07:51:37.070Z,86.31
2017-10-28T07:54:05.600Z,86.72
2017-10-28T07:56:34.036Z,86.15
2017-10-28T07:59:02.509Z,85.59
2017-10-28T08:01:31.045Z,85.62
2017-10-28T08:04:04.916Z,85.46
2017-10-28T08:06:34.135Z,84.95
2017-10-28T08:09:02.569Z,85.25
2017-10-28T08:11:31.029Z,84.46
2017-10-28T08:13:59.470Z,84.31
2017-10-28T08:16:28.692Z,84.28
2017-10-28T08:18:57.181Z,84.37
2017-10-28T08:21:25.667Z,83.40
2017-10-28T08:23:54.110Z,83.83
2017-10-28T08:26:23.333Z,83.75
2017-10-28T08:28:51.838Z,83.42
2017-10-28T08:31:20.423Z,82.96
2017-10-28T08:33:48.866Z,82.99
2017-10-28T08:36:18.162Z,83.13
2017-10-28T08:38:47.399Z,82.89
2017-10-28T08:41:15.874Z,83.02
2017-10-28T08:43:44.317Z,82.91
2017-10-28T08:46:13.541Z,83.03
2017-10-28T08:48:41.977Z,83.25
2017-10-28T08:51:10.436Z,82.20
2017-10-28T08:53:38.866Z,81.51
2017-10-28T08:56:08.114Z,81.64
2017-10-28T08:58:37.081Z,81.44
2017-10-28T09:01:05.513Z,81.31
2017-10-28T09:03:34.062Z,81.42
2017-10-28T09:06:02.509Z,81.40
2017-10-28T09:08:31.845Z,81.54
2017-10-28T09:11:00.293Z,81.50
2017-10-28T09:13:29.513Z,80.71
2017-10-28T09:15:57.953Z,80.83
2017-10-28T09:18:26.409Z,80.63
2017-10-28T09:20:54.847Z,80.41
2017-10-28T09:23:23.343Z,80.67
2017-10-28T09:25:51.778Z,80.79
2017-10-28T09:28:20.237Z,81.05
2017-10-28T09:30:48.664Z,80.63
2017-10-28T09:33:17.974Z,80.44
2017-10-28T09:35:47.183Z,80.53
2017-10-28T09:38:15.675Z,80.18
2017-10-28T09:40:44.168Z,79.93
2017-10-28T09:43:12.641Z,79.46
2017-10-28T09:45:41.097Z,79.74
2017-10-28T09:48:10.439Z,79.36
2017-10-28T09:50:39.009Z,78.82
2017-10-28T09:53:07.503Z,79.00
2017-10-28T09:55:35.985Z,78.89
2017-10-28T09:58:04.470Z,78.97
2017-10-28T10:00:32.946Z,79.02
2017-10-28T10:03:01.431Z,78.95
2017-10-28T10:05:29.898Z,79.18
2017-10-28T10:07:58.346Z,79.53
2017-10-28T10:10:27.587Z,79.03
2017-10-28T10:12:56.033Z,78.87
2017-10-28T10:15:25.281Z,78.29
2017-10-28T10:17:53.716Z,78.50
2017-10-28T10:20:22.943Z,78.49
2017-10-28T10:22:51.404Z,78.51
2017-10-28T10:25:20.605Z,78.33
2017-10-28T10:27:49.820Z,78.23
2017-10-28T10:30:18.310Z,78.41
2017-10-28T10:32:46.765Z,77.95
2017-10-28T10:35:15.988Z,77.75
2017-10-28T10:37:44.466Z,77.50
2017-10-28T10:40:12.904Z,77.19
2017-10-28T10:42:41.377Z,76.63
2017-10-28T10:45:09.927Z,76.83
2017-10-28T10:47:38.380Z,77.04
2017-10-28T10:50:06.813Z,77.29
2017-10-28T10:52:35.269Z,76.42
2017-10-28T10:55:03.745Z,76.24
2017-10-28T10:57:32.228Z,76.22
2017-10-28T11:00:00.673Z,76.11
2017-10-28T11:02:29.901Z,75.89
2017-10-28T11:04:58.337Z,75.95
2017-10-28T11:07:26.794Z,76.02
2017-10-28T11:09:55.258Z,76.41
2017-10-28T11:12:23.735Z,76.47
2017-10-28T11:14:52.181Z,76.30
2017-10-28T11:17:21.413Z,76.42
2017-10-28T11:19:49.903Z,76.61
2017-10-28T11:22:19.138Z,76.87
2017-10-28T11:24:47.677Z,76.32
2017-10-28T11:27:16.113Z,76.83
2017-10-28T11:29:44.577Z,76.48
2017-10-28T11:32:13.135Z,76.46
2017-10-28T11:34:41.593Z,76.71
2017-10-28T11:37:10.043Z,76.75
2017-10-28T11:39:39.295Z,76.95
2017-10-28T11:42:07.736Z,76.86
2017-10-28T11:44:37.096Z,76.91
2017-10-28T11:47:05.529Z,77.14
2017-10-28T11:49:34.773Z,77.10
2017-10-28T11:52:03.214Z,77.30
2017-10-28T11:54:31.650Z,77.57
2017-10-28T11:57:00.106Z,77.44
2017-10-28T11:59:28.546Z,77.61
2017-10-28T12:01:57.772Z,77.68
2017-10-28T12:04:26.263Z,77.70
2017-10-28T12:06:54.733Z,77.82
2017-10-28T12:09:23.178Z,77.81
2017-10-28T12:11:51.633Z,78.08
2017-10-28T12:14:20.069Z,78.04
2017-10-28T12:16:48.520Z,77.49
2017-10-28T12:19:16.958Z,77.73
2017-10-28T12:21:45.539Z,77.89
2017-10-28T12:24:14.018Z,77.28
2017-10-28T12:26:42.454Z,77.36
2017-10-28T12:29:12.521Z,77.00
2017-10-28T12:31:40.960Z,77.41
2017-10-28T12:34:10.183Z,76.90
2017-10-28T12:36:38.621Z,77.04
2017-10-28T12:39:07.091Z,76.87
2017-10-28T12:41:35.640Z,77.19
2017-10-28T12:44:04.117Z,77.24
2017-10-28T12:46:32.609Z,77.30
2017-10-28T12:49:01.060Z,77.00
2017-10-28T12:51:30.267Z,77.39
2017-10-28T12:53:58.728Z,77.62
2017-10-28T12:56:27.973Z,77.81
2017-10-28T12:58:56.443Z,77.98
2017-10-28T13:01:24.881Z,78.32
2017-10-28T13:03:53.419Z,78.44
2017-10-28T13:06:21.906Z,78.42
2017-10-28T13:08:50.366Z,78.82
2017-10-28T13:11:18.801Z,78.91
2017-10-28T13:13:47.267Z,78.84
2017-10-28T13:16:15.704Z,78.71
2017-10-28T13:18:44.165Z,79.06
2017-10-28T13:21:13.713Z,78.90
2017-10-28T13:23:42.201Z,79.04
2017-10-28T13:26:10.641Z,78.98
2017-10-28T13:28:39.878Z,78.73
2017-10-28T13:31:08.457Z,78.66
2017-10-28T13:33:36.893Z,79.01
2017-10-28T13:36:05.421Z,79.32
2017-10-28T13:38:33.862Z,80.42
2017-10-28T13:41:03.085Z,81.32
2017-10-28T13:43:31.521Z,82.85
2017-10-28T13:46:00.068Z,82.59
2017-10-28T13:48:28.513Z,81.89
2017-10-28T13:50:57.737Z,81.73
2017-10-28T13:53:26.236Z,80.85
2017-10-28T13:55:54.706Z,80.90
2017-10-28T13:58:23.144Z,80.40
2017-10-28T14:00:53.133Z,80.47
2017-10-28T14:03:21.574Z,80.81
2017-10-28T14:05:50.012Z,81.65
2017-10-28T14:08:18.486Z,81.80
2017-10-28T14:10:46.925Z,83.20
2017-10-28T14:13:15.407Z,84.27
2017-10-28T14:15:43.909Z,86.61
2017-10-28T14:18:12.371Z,88.19
2017-10-28T14:20:40.818Z,88.39
2017-10-28T14:23:09.287Z,89.28
2017-10-28T14:25:37.731Z,89.32
2017-10-28T14:28:06.321Z,89.76
2017-10-28T14:30:34.757Z,90.17
2017-10-28T14:33:03.993Z,89.92
2017-10-28T14:35:32.442Z,90.01
2017-10-28T14:38:01.674Z,90.64
2017-10-28T14:40:30.158Z,90.79
2017-10-28T14:42:58.624Z,91.39
2017-10-28T14:45:27.121Z,91.39
2017-10-28T14:47:55.570Z,91.87
2017-10-28T14:50:24.793Z,92.52
2017-10-28T14:52:53.229Z,92.87
2017-10-28T14:55:21.766Z,93.57
2017-10-28T14:57:50.209Z,94.05
2017-10-28T15:00:19.436Z,94.44
2017-10-28T15:02:47.874Z,94.75
2017-10-28T15:05:16.336Z,95.38
2017-10-28T15:07:44.779Z,95.22
2017-10-28T15:10:13.237Z,95.50
2017-10-28T15:12:42.437Z,95.85
2017-10-28T15:15:11.669Z,95.59
2017-10-28T15:17:40.127Z,95.93
2017-10-28T15:20:09.353Z,95.99
2017-10-28T15:22:37.897Z,96.20
2017-10-28T15:25:07.142Z,96.51
2017-10-28T15:27:35.626Z,96.62
2017-10-28T15:30:04.068Z,96.87
2017-10-28T15:32:33.295Z,96.87
2017-10-28T15:35:01.729Z,96.86
2017-10-28T15:37:30.193Z,96.87
2017-10-28T15:39:58.740Z,96.82
2017-10-28T15:42:27.199Z,96.73
2017-10-28T15:44:56.397Z,96.69
2017-10-28T15:47:25.621Z,96.84
2017-10-28T15:49:54.057Z,96.85
2017-10-28T15:52:22.525Z,96.63
2017-10-28T15:54:50.961Z,96.84
2017-10-28T15:57:19.425Z,96.13
2017-10-28T15:59:48.629Z,95.90
2017-10-28T16:02:17.717Z,95.41
2017-10-28T16:04:46.924Z,95.76
2017-10-28T16:07:15.401Z,95.91
2017-10-28T16:09:44.604Z,95.88
2017-10-28T16:12:13.042Z,95.83
2017-10-28T16:14:43.009Z,96.40
2017-10-28T16:17:11.442Z,96.89
2017-10-28T16:19:39.905Z,96.74
2017-10-28T16:22:08.375Z,96.99
2017-10-28T16:24:36.833Z,97.69
2017-10-28T16:27:05.283Z,97.52
2017-10-28T16:29:34.525Z,97.60
2017-10-28T16:32:02.966Z,97.65
2017-10-28T16:34:32.210Z,97.45
2017-10-28T16:37:00.699Z,97.66
2017-10-28T16:39:29.153Z,97.38
2017-10-28T16:41:57.665Z,97.31
2017-10-28T16:44:26.120Z,97.56
2017-10-28T16:46:54.618Z,98.03
2017-10-28T16:49:23.057Z,97.63
2017-10-28T16:51:52.294Z,97.50
2017-10-28T16:54:20.728Z,97.77
2017-10-28T16:56:49.189Z,97.67
2017-10-28T16:59:17.618Z,97.58
2017-10-28T17:01:46.077Z,97.39
2017-10-28T17:04:14.514Z,97.22
2017-10-28T17:06:42.975Z,97.13
2017-10-28T17:09:11.558Z,97.18
2017-10-28T17:11:40.009Z,96.73
2017-10-28T17:14:09.212Z,96.59
2017-10-28T17:16:38.460Z,96.27
2017-10-28T17:19:06.890Z,95.98
2017-10-28T17:21:36.105Z,95.67
2017-10-28T17:24:05.303Z,95.94
2017-10-28T17:26:34.541Z,95.21
2017-10-28T17:29:02.987Z,95.47
2017-10-28T17:31:31.437Z,95.20
2017-10-28T17:33:59.899Z,95.26
2017-10-28T17:36:28.329Z,94.67
2017-10-28T17:38:57.540Z,94.84
2017-10-28T17:41:25.969Z,94.91
2017-10-28T17:43:54.427Z,94.91
2017-10-28T17:46:22.862Z,95.39
2017-10-28T17:48:52.080Z,95.22
2017-10-28T17:51:20.881Z,95.48
2017-10-28T17:53:49.328Z,95.61
2017-10-28T17:56:18.530Z,95.48
2017-10-28T17:58:47.753Z,95.45
2017-10-28T18:01:16.244Z,95.43
2017-10-28T18:03:44.701Z,95.44
2017-10-28T18:06:13.896Z,95.90
2017-10-28T18:08:43.120Z,96.39
2017-10-28T18:11:11.554Z,95.95
2017-10-28T18:13:40.018Z,96.46
2017-10-28T18:16:08.483Z,96.75
2017-10-28T18:18:36.908Z,98.80
2017-10-28T18:21:05.443Z,98.32
2017-10-28T18:23:33.872Z,97.38
2017-10-28T18:26:02.333Z,96.96
2017-10-28T18:28:30.767Z,97.10
2017-10-28T18:30:59.222Z,97.30
2017-10-28T18:33:28.421Z,96.87
2017-10-28T18:35:57.651Z,96.89
2017-10-28T18:38:26.136Z,96.78
2017-10-28T18:40:54.602Z,96.68
2017-10-28T18:43:23.108Z,96.37
2017-10-28T18:45:51.582Z,96.06
2017-10-28T18:48:20.065Z,96.52
2017-10-28T18:50:48.501Z,96.23
2017-10-28T18:53:17.039Z,96.32
2017-10-28T18:55:45.518Z,96.67
2017-10-28T18:58:13.977Z,96.87
2017-10-28T19:00:43.173Z,97.26
2017-10-28T19:03:12.404Z,97.37
2017-10-28T19:05:40.838Z,97.57
2017-10-28T19:08:10.071Z,97.69
2017-10-28T19:10:38.566Z,97.47
2017-10-28T19:13:07.049Z,97.25
2017-10-28T19:15:35.493Z,97.11
2017-10-28T19:18:04.715Z,96.93
2017-10-28T19:20:33.148Z,96.38
2017-10-28T19:23:01.680Z,95.60
2017-10-28T19:25:30.176Z,95.85
2017-10-28T19:27:58.629Z,95.73
2017-10-28T19:30:27.129Z,95.51
2017-10-28T19:32:55.576Z,95.68
2017-10-28T19:35:24.773Z,95.87
2017-10-28T19:37:53.964Z,96.35
2017-10-28T19:40:22.414Z,96.48
2017-10-28T19:42:50.837Z,96.55
2017-10-28T19:45:20.066Z,96.74
2017-10-28T19:47:48.496Z,96.70
2017-10-28T19:50:16.950Z,96.86
2017-10-28T19:52:45.381Z,96.62
2017-10-28T19:55:14.609Z,96.82
2017-10-28T19:57:43.042Z,96.17
2017-10-28T20:00:11.588Z,95.87
2017-10-28T20:02:40.050Z,95.59
2017-10-28T20:05:08.498Z,95.76
2017-10-28T20:07:37.702Z,95.38
2017-10-28T20:10:06.934Z,95.44
2017-10-28T20:12:35.360Z,95.22
2017-10-28T20:15:03.813Z,94.95
2017-10-28T20:17:32.241Z,94.64
2017-10-28T20:20:01.465Z,94.64
2017-10-28T20:22:29.974Z,94.65
2017-10-28T20:24:58.444Z,94.54
2017-10-28T20:27:26.873Z,94.64
2017-10-28T20:29:55.298Z,94.65
2017-10-28T20:32:23.753Z,94.92
2017-10-28T20:34:52.989Z,95.61
2017-10-28T20:37:21.475Z,95.87
2017-10-28T20:39:49.959Z,96.47
2017-10-28T20:42:18.617Z,96.83
2017-10-28T20:44:47.812Z,96.88
2017-10-28T20:47:17.030Z,97.19
2017-10-28T20:49:45.457Z,97.26
2017-10-28T20:52:13.913Z,97.37
2017-10-28T20:54:42.354Z,97.57
2017-10-28T20:57:11.578Z,97.50
2017-10-28T20:59:40.012Z,97.50
2017-10-28T21:02:10.102Z,97.66
2017-10-28T21:04:38.529Z,97.85
2017-10-28T21:07:07.730Z,97.85
2017-10-28T21:09:36.948Z,98.25
2017-10-28T21:12:05.436Z,98.41
2017-10-28T21:14:33.893Z,98.20
2017-10-28T21:17:03.156Z,98.23
2017-10-28T21:19:31.617Z,98.17
2017-10-28T21:22:00.098Z,98.21
2017-10-28T21:24:28.558Z,98.19
2017-10-28T21:26:56.984Z,98.06
2017-10-28T21:29:25.446Z,97.85
2017-10-28T21:31:53.877Z,97.48
2017-10-28T21:34:23.098Z,97.39
2017-10-28T21:36:51.534Z,97.49
2017-10-28T21:39:20.188Z,97.58
2017-10-28T21:41:48.620Z,97.58
2017-10-28T21:44:17.821Z,97.52
2017-10-28T21:46:47.062Z,97.36
2017-10-28T21:49:15.502Z,97.09
2017-10-28T21:51:44.722Z,96.80
2017-10-28T21:54:13.156Z,97.04
2017-10-28T21:56:41.701Z,96.72
2017-10-28T21:59:10.125Z,96.68
2017-10-28T22:01:38.665Z,96.41
2017-10-28T22:04:07.099Z,96.39
2017-10-28T22:06:35.556Z,96.35
2017-10-28T22:09:03.993Z,96.29
2017-10-28T22:11:32.450Z,96.62
2017-10-28T22:14:01.666Z,96.50
2017-10-28T22:16:30.997Z,96.75
2017-10-28T22:18:59.433Z,96.80
2017-10-28T22:21:28.741Z,96.59
2017-10-28T22:23:57.983Z,96.50
2017-10-28T22:26:26.413Z,96.76
2017-10-28T22:28:54.937Z,97.08
2017-10-28T22:31:23.369Z,97.11
2017-10-28T22:33:51.839Z,97.28
2017-10-28T22:36:20.295Z,97.49
2017-10-28T22:38:48.757Z,97.60
2017-10-28T22:41:17.193Z,97.63
2017-10-28T22:43:45.653Z,97.30
2017-10-28T22:46:14.081Z,97.37
2017-10-28T22:48:43.315Z,97.30
2017-10-28T22:51:11.750Z,97.17
2017-10-28T22:53:40.972Z,97.09
2017-10-28T22:56:09.410Z,97.46
2017-10-28T22:58:37.949Z,96.82
2017-10-28T23:01:06.436Z,96.74
2017-10-28T23:03:34.896Z,96.89
2017-10-28T23:06:03.329Z,96.54
2017-10-28T23:08:31.766Z,96.74
2017-10-28T23:11:00.213Z,96.99
2017-10-28T23:13:28.642Z,96.74
2017-10-28T23:15:57.105Z,96.61
2017-10-28T23:18:25.538Z,96.33
2017-10-28T23:20:54.097Z,96.11
2017-10-28T23:23:22.524Z,95.80
2017-10-28T23:25:50.972Z,95.77
2017-10-28T23:28:19.415Z,95.84
2017-10-28T23:30:47.913Z,95.33
2017-10-28T23:33:16.388Z,94.81
2017-10-28T23:35:44.838Z,94.65
2017-10-28T23:38:14.037Z,94.15
2017-10-28T23:40:43.285Z,94.26
2017-10-28T23:43:11.721Z,93.80
2017-10-28T23:45:40.940Z,94.39
2017-10-28T23:48:09.368Z,92.93
2017-10-28T23:50:37.922Z,92.44
2017-10-28T23:53:06.349Z,92.15
2017-10-28T23:55:34.880Z,92.21
2017-10-28T23:58:03.376Z,92.46
